Time;durP1;ratioP1;P1;durP2;ratioP2;P2;SDS_P1;SDS_P2;PMS_P1;PMS_P2;Temp;Humidity;BMP_temperature;BMP_pressure;BME280_temperature;BME280_humidity;BME280_pressure;Samples;Min_cycle;Max_cycle;Signal;HPM_P1;HPM_P2
2023/09/07 00:01:04;;;;;;;3.17;2.97;;;;;;;21.00;55.53;102031.00;4969595;28;97135;-61
2023/09/07 00:03:29;;;;;;;2.60;2.40;;;;;;;20.93;55.44;102027.53;4968011;28;97219;-61
2023/09/07 00:05:55;;;;;;;2.30;2.20;;;;;;;20.89;55.60;102029.13;4964762;28;97854;-61
2023/09/07 00:08:20;;;;;;;2.33;2.20;;;;;;;20.87;55.62;102029.66;4966187;28;100780;-61
2023/09/07 00:10:45;;;;;;;3.47;2.43;;;;;;;20.85;55.67;102023.84;4968444;28;98926;-61
2023/09/07 00:13:11;;;;;;;2.47;2.27;;;;;;;20.83;55.57;102025.66;4969106;28;98541;-60
2023/09/07 00:15:37;;;;;;;2.10;2.00;;;;;;;20.82;55.71;102021.34;4965404;28;103716;-61
2023/09/07 00:18:03;;;;;;;2.53;2.43;;;;;;;20.79;55.74;102016.81;4965175;28;97927;-61
2023/09/07 00:20:29;;;;;;;3.57;2.20;;;;;;;20.75;55.71;102019.91;4965121;28;96791;-60
2023/09/07 00:22:54;;;;;;;2.83;2.63;;;;;;;20.72;55.74;102018.19;4968992;28;97276;-61
2023/09/07 00:25:20;;;;;;;2.10;2.00;;;;;;;20.67;56.02;102013.41;4963171;28;110769;-60
2023/09/07 00:27:46;;;;;;;2.30;2.20;;;;;;;20.66;55.79;102017.50;4964737;28;96859;-61
2023/09/07 00:30:11;;;;;;;3.13;2.57;;;;;;;20.66;55.86;102019.56;4965297;28;97415;-60
2023/09/07 00:32:38;;;;;;;2.77;2.57;;;;;;;20.67;55.98;102021.06;4964718;28;97146;-61
2023/09/07 00:35:04;;;;;;;2.27;2.17;;;;;;;20.65;56.00;102021.59;4971496;28;97727;-61
2023/09/07 00:37:29;;;;;;;2.10;1.93;;;;;;;20.63;55.89;102012.97;4966605;28;97805;-61
2023/09/07 00:39:55;;;;;;;2.20;2.10;;;;;;;20.60;55.89;102022.41;4967303;28;97017;-61
2023/09/07 00:42:20;;;;;;;2.50;2.30;;;;;;;20.52;55.97;102013.13;4959612;28;96692;-61
2023/09/07 00:44:46;;;;;;;2.40;2.30;;;;;;;20.51;55.91;102019.25;4961350;28;97079;-61
2023/09/07 00:47:11;;;;;;;2.07;1.97;;;;;;;20.48;56.03;102015.47;4967245;28;97088;-61
2023/09/07 00:49:37;;;;;;;2.60;2.20;;;;;;;20.46;55.99;102012.44;4964778;28;97413;-60
2023/09/07 00:52:04;;;;;;;2.57;2.37;;;;;;;20.45;55.90;102008.13;4973563;28;97429;-61
2023/09/07 00:54:30;;;;;;;3.00;2.27;;;;;;;20.38;55.98;102008.00;4973065;28;97282;-61
2023/09/07 00:56:56;;;;;;;2.33;2.13;;;;;;;20.36;56.22;102004.94;4972750;28;96804;-60
2023/09/07 00:59:21;;;;;;;2.57;2.37;;;;;;;20.30;56.07;102012.66;4973543;28;97147;-61
2023/09/07 01:01:48;;;;;;;3.53;3.17;;;;;;;20.30;56.21;102007.81;4971983;28;97111;-61
2023/09/07 01:04:14;;;;;;;2.80;2.60;;;;;;;20.28;56.04;102012.44;4970624;28;100423;-60
2023/09/07 01:06:46;;;;;;;2.83;2.47;;;;;;;20.25;56.57;102013.50;4971647;28;96786;-61
2023/09/07 01:09:17;;;;;;;2.43;2.33;;;;;;;20.21;56.37;102002.59;4969447;28;97349;-60
2023/09/07 01:11:43;;;;;;;2.77;2.57;;;;;;;20.16;56.27;102011.78;4973549;28;96926;-61
2023/09/07 01:14:09;;;;;;;2.80;2.60;;;;;;;20.08;56.61;102005.28;4973801;28;97257;-61
2023/09/07 01:16:35;;;;;;;2.23;2.13;;;;;;;20.02;56.66;102008.16;4972102;28;96758;-61
2023/09/07 01:19:01;;;;;;;2.67;2.47;;;;;;;19.99;56.76;102016.81;4970482;28;96883;-61
2023/09/07 01:21:33;;;;;;;3.10;2.80;;;;;;;19.97;56.68;102013.78;4969987;28;96741;-61
2023/09/07 01:24:00;;;;;;;2.77;2.53;;;;;;;19.96;56.66;101995.53;4972103;28;97609;-61
2023/09/07 01:26:25;;;;;;;2.37;2.27;;;;;;;19.91;56.74;101994.31;4974192;28;97197;-60
2023/09/07 01:28:51;;;;;;;2.90;2.70;;;;;;;19.91;56.88;101999.88;4971740;28;97130;-61
2023/09/07 01:31:17;;;;;;;3.17;2.80;;;;;;;19.90;56.70;101992.00;4971539;28;97811;-61
2023/09/07 01:33:42;;;;;;;2.83;2.43;;;;;;;19.91;56.78;101999.88;4974474;28;97983;-61
2023/09/07 01:36:07;;;;;;;2.57;2.37;;;;;;;19.91;56.83;101991.50;4969693;28;97219;-60
2023/09/07 01:38:33;;;;;;;2.50;2.40;;;;;;;19.91;57.07;101997.09;4975244;28;97690;-60
2023/09/07 01:40:58;;;;;;;3.13;2.93;;;;;;;19.92;57.06;102001.38;4974880;28;97428;-61
2023/09/07 01:43:23;;;;;;;2.50;2.40;;;;;;;19.92;57.09;101995.06;4971948;28;109740;-61
2023/09/07 01:45:49;;;;;;;3.40;3.10;;;;;;;19.91;56.78;101996.34;4974931;28;108178;-61
2023/09/07 01:48:14;;;;;;;4.30;2.87;;;;;;;19.90;56.81;101997.59;4972391;28;97190;-61
2023/09/07 01:50:40;;;;;;;2.80;2.60;;;;;;;19.89;56.69;101996.88;4973473;28;97288;-60
2023/09/07 01:53:05;;;;;;;2.73;2.50;;;;;;;19.87;56.79;102001.47;4972861;28;97378;-61
2023/09/07 01:55:31;;;;;;;3.40;3.10;;;;;;;19.83;56.97;102006.59;4971844;28;97104;-61
2023/09/07 01:57:57;;;;;;;2.20;2.10;;;;;;;19.76;56.74;102001.56;4974770;28;97236;-61
2023/09/07 02:00:22;;;;;;;6.90;2.97;;;;;;;19.73;56.81;102000.59;4972664;28;97037;-61
2023/09/07 02:02:47;;;;;;;3.10;2.90;;;;;;;19.69;56.98;102005.72;4964009;28;96936;-61
2023/09/07 02:05:13;;;;;;;2.77;2.53;;;;;;;19.64;56.94;102000.94;4971988;28;107215;-61
2023/09/07 02:07:38;;;;;;;3.07;2.77;;;;;;;19.62;57.00;102005.53;4970813;28;97240;-61
2023/09/07 02:10:04;;;;;;;3.27;3.07;;;;;;;19.60;57.14;102013.66;4966430;28;97339;-61
2023/09/07 02:12:29;;;;;;;4.70;2.77;;;;;;;19.55;56.92;102011.69;4966208;28;99354;-61
2023/09/07 02:14:55;;;;;;;2.67;2.50;;;;;;;19.51;57.22;102005.63;4967178;28;97209;-61
2023/09/07 02:17:21;;;;;;;2.73;2.50;;;;;;;19.49;57.35;102006.16;4966268;28;96739;-61
2023/09/07 02:19:46;;;;;;;3.33;3.13;;;;;;;19.47;57.20;102008.72;4969182;28;97188;-61
2023/09/07 02:22:11;;;;;;;3.20;2.90;;;;;;;19.39;57.12;102011.34;4967102;28;104919;-61
2023/09/07 02:24:37;;;;;;;3.00;2.67;;;;;;;19.36;57.26;102012.38;4966224;28;97637;-61
2023/09/07 02:27:02;;;;;;;3.23;3.03;;;;;;;19.27;57.51;102009.88;4965627;28;97019;-61
2023/09/07 02:29:28;;;;;;;2.70;2.50;;;;;;;19.28;57.37;102002.28;4970249;28;97241;-61
2023/09/07 02:31:53;;;;;;;3.80;3.27;;;;;;;19.25;57.56;102012.44;4967027;28;98349;-61
2023/09/07 02:34:18;;;;;;;3.50;2.70;;;;;;;19.24;57.43;102010.91;4968789;28;96701;-61
2023/09/07 02:36:44;;;;;;;3.50;3.20;;;;;;;19.15;57.75;102014.03;4967585;28;99347;-61
2023/09/07 02:39:11;;;;;;;3.10;2.90;;;;;;;19.12;57.55;102012.28;4967978;28;96960;-61
2023/09/07 02:41:36;;;;;;;3.30;3.10;;;;;;;19.12;57.55;102008.72;4965286;28;97162;-61
2023/09/07 02:44:02;;;;;;;3.03;2.83;;;;;;;19.08;57.87;102009.03;4969603;28;99100;-61
2023/09/07 02:46:28;;;;;;;3.50;3.20;;;;;;;19.09;57.92;101999.38;4967179;28;97172;-61
2023/09/07 02:48:56;;;;;;;3.67;2.97;;;;;;;19.10;57.70;102006.47;4962253;28;97151;-61
2023/09/07 02:51:22;;;;;;;3.27;3.07;;;;;;;19.09;57.77;102007.72;4964610;28;97104;-61
2023/09/07 02:53:48;;;;;;;3.47;3.17;;;;;;;19.10;57.77;102011.28;4970730;28;97143;-61
2023/09/07 02:56:13;;;;;;;3.70;3.40;;;;;;;19.07;57.94;102018.66;4968221;28;98671;-61
2023/09/07 02:58:39;;;;;;;3.13;2.93;;;;;;;19.07;57.75;102017.88;4968931;28;96724;-61
2023/09/07 03:01:10;;;;;;;3.07;2.87;;;;;;;19.07;58.02;102020.69;4969243;28;97909;-61
2023/09/07 03:03:36;;;;;;;3.07;2.87;;;;;;;19.04;57.82;102019.72;4967880;28;97725;-60
2023/09/07 03:06:09;;;;;;;3.20;2.97;;;;;;;19.01;58.08;102014.41;4971511;28;96875;-61
2023/09/07 03:08:34;;;;;;;3.40;2.87;;;;;;;18.94;57.86;102012.91;4955635;28;97273;-61
2023/09/07 03:11:04;;;;;;;3.13;2.93;;;;;;;18.93;58.04;102019.03;4969138;28;97360;-61
2023/09/07 03:13:29;;;;;;;2.97;2.77;;;;;;;18.92;57.94;102018.25;4967155;28;96708;-61
2023/09/07 03:15:55;;;;;;;2.80;2.60;;;;;;;18.89;57.95;102015.75;4969920;28;102088;-61
2023/09/07 03:18:21;;;;;;;3.63;3.33;;;;;;;18.85;58.04;102018.06;4967639;28;96919;-61
2023/09/07 03:20:46;;;;;;;2.90;2.70;;;;;;;18.83;58.04;102013.00;4961813;28;100475;-61
2023/09/07 03:23:12;;;;;;;2.63;2.47;;;;;;;18.78;58.09;102008.22;4966889;28;97409;-61
2023/09/07 03:25:37;;;;;;;3.37;3.17;;;;;;;18.77;58.11;102020.66;4966331;28;97171;-61
2023/09/07 03:28:03;;;;;;;4.80;2.90;;;;;;;18.74;58.24;102024.44;4970727;28;97969;-61
2023/09/07 03:30:29;;;;;;;3.03;2.83;;;;;;;18.71;58.36;102014.34;4965110;28;97857;-61
2023/09/07 03:32:54;;;;;;;3.07;2.87;;;;;;;18.69;58.37;102016.91;4967813;28;97149;-61
2023/09/07 03:35:20;;;;;;;2.93;2.73;;;;;;;18.68;58.42;102015.38;4969226;28;97322;-61
2023/09/07 03:37:45;;;;;;;2.77;2.60;;;;;;;18.68;58.13;102012.59;4970463;28;101796;-61
2023/09/07 03:40:10;;;;;;;3.33;3.13;;;;;;;18.66;58.19;102013.09;4969307;28;107288;-61
2023/09/07 03:42:36;;;;;;;3.23;3.03;;;;;;;18.61;58.41;102008.31;4964409;28;96766;-61
2023/09/07 03:45:03;;;;;;;3.63;3.33;;;;;;;18.61;58.28;102007.56;4966325;28;97823;-60
2023/09/07 03:47:29;;;;;;;3.43;3.20;;;;;;;18.60;58.35;102006.06;4965678;28;97310;-61
2023/09/07 03:49:56;;;;;;;3.60;3.40;;;;;;;18.59;58.29;102010.09;4962551;28;99933;-61
2023/09/07 03:52:24;;;;;;;3.37;3.07;;;;;;;18.54;58.24;102017.22;4968557;28;97110;-61
2023/09/07 03:54:50;;;;;;;3.90;3.60;;;;;;;18.52;58.30;102011.41;4967557;28;98052;-60
2023/09/07 03:57:15;;;;;;;4.07;3.70;;;;;;;18.53;58.38;102014.94;4963248;28;97071;-61
2023/09/07 03:59:40;;;;;;;3.90;3.60;;;;;;;18.49;58.40;102015.22;4956410;28;97742;-61
2023/09/07 04:02:06;;;;;;;3.73;3.43;;;;;;;18.49;58.56;102020.81;4965746;28;97246;-61
2023/09/07 04:04:31;;;;;;;3.53;3.30;;;;;;;18.47;58.58;102022.59;4966063;28;98054;-61
2023/09/07 04:06:56;;;;;;;4.20;3.90;;;;;;;18.48;58.53;102021.31;4964742;28;97040;-61
2023/09/07 04:09:22;;;;;;;4.27;3.90;;;;;;;18.48;58.59;102013.72;4959292;28;97616;-61
2023/09/07 04:11:47;;;;;;;4.07;3.70;;;;;;;18.45;58.48;102020.31;4963176;28;104341;-61
2023/09/07 04:14:12;;;;;;;3.80;3.40;;;;;;;18.41;58.36;102014.22;4965110;28;97356;-61
2023/09/07 04:16:38;;;;;;;3.90;3.60;;;;;;;18.39;58.65;102021.59;4964710;28;96898;-61
2023/09/07 04:19:03;;;;;;;3.80;3.50;;;;;;;18.37;58.54;102024.13;4969416;28;99198;-61
2023/09/07 04:21:28;;;;;;;3.13;2.93;;;;;;;18.34;58.65;102023.13;4965578;28;97156;-61
2023/09/07 04:23:54;;;;;;;3.23;3.03;;;;;;;18.34;58.64;102022.38;4966089;28;97133;-61
2023/09/07 04:26:19;;;;;;;3.83;3.50;;;;;;;18.35;58.75;102016.28;4967149;28;97753;-61
2023/09/07 04:28:44;;;;;;;3.83;3.53;;;;;;;18.34;58.55;102023.13;4965207;28;97429;-61
2023/09/07 04:31:10;;;;;;;3.57;3.37;;;;;;;18.31;58.51;102023.38;4968813;28;98100;-61
2023/09/07 04:33:36;;;;;;;3.30;3.10;;;;;;;18.30;58.91;102027.47;4967876;28;97052;-61
2023/09/07 04:36:09;;;;;;;3.23;3.03;;;;;;;18.29;59.10;102029.47;4969217;28;97262;-61
2023/09/07 04:38:34;;;;;;;3.23;2.93;;;;;;;18.26;58.96;102024.19;4964896;28;100878;-61
2023/09/07 04:41:10;;;;;;;3.63;3.13;;;;;;;18.24;59.16;102033.03;4966590;28;98440;-61
2023/09/07 04:43:37;;;;;;;3.30;3.10;;;;;;;18.22;58.81;102029.25;4966324;28;96964;-61
2023/09/07 04:46:02;;;;;;;6.90;3.17;;;;;;;18.24;58.90;102035.09;4968697;28;97043;-61
2023/09/07 04:48:28;;;;;;;3.30;3.10;;;;;;;18.21;58.95;102036.09;4969117;28;98727;-61
2023/09/07 04:51:07;;;;;;;3.70;3.40;;;;;;;18.19;59.44;102041.44;4965178;28;97205;-61
2023/09/07 04:53:34;;;;;;;3.43;3.10;;;;;;;18.15;59.01;102043.72;4970907;28;97198;-61
2023/09/07 04:56:00;;;;;;;3.73;3.43;;;;;;;18.15;59.16;102035.38;4969507;28;96860;-61
2023/09/07 04:58:26;;;;;;;2.97;2.77;;;;;;;18.14;59.04;102040.19;4965761;28;96688;-61
2023/09/07 05:00:51;;;;;;;3.13;2.93;;;;;;;18.13;59.21;102046.25;4964794;28;100176;-61
2023/09/07 05:03:17;;;;;;;3.67;3.43;;;;;;;18.12;59.21;102044.72;4965949;28;97050;-61
2023/09/07 05:05:46;;;;;;;3.57;3.27;;;;;;;18.12;59.27;102053.09;4965606;28;96772;-61
2023/09/07 05:08:11;;;;;;;2.50;2.40;;;;;;;18.13;59.22;102054.63;4969870;28;97182;-61
2023/09/07 05:10:38;;;;;;;2.90;2.77;;;;;;;18.10;59.24;102044.50;4966820;28;97550;-61
2023/09/07 05:13:03;;;;;;;3.73;3.37;;;;;;;18.10;59.36;102038.91;4962724;28;97248;-61
2023/09/07 05:15:28;;;;;;;3.53;3.23;;;;;;;18.08;59.34;102049.81;4964419;28;97239;-61
2023/09/07 05:17:54;;;;;;;3.37;3.17;;;;;;;18.06;59.31;102050.34;4962445;28;98662;-61
2023/09/07 05:20:20;;;;;;;3.20;3.00;;;;;;;18.07;59.31;102039.94;4965193;28;97840;-61
2023/09/07 05:22:45;;;;;;;3.60;3.30;;;;;;;18.07;59.35;102051.06;4963136;28;97026;-61
2023/09/07 05:25:11;;;;;;;3.83;3.53;;;;;;;18.06;59.46;102044.75;4965212;28;96653;-62
2023/09/07 05:27:37;;;;;;;3.03;2.83;;;;;;;18.08;59.47;102045.00;4966289;28;97665;-61
2023/09/07 05:30:03;;;;;;;3.47;3.27;;;;;;;18.11;59.61;102046.03;4963137;28;97170;-61
2023/09/07 05:32:28;;;;;;;3.20;3.00;;;;;;;18.14;59.44;102045.75;4967481;28;96685;-61
2023/09/07 05:34:54;;;;;;;2.73;2.63;;;;;;;18.12;59.53;102045.50;4968231;28;97494;-61
2023/09/07 05:37:19;;;;;;;3.87;3.60;;;;;;;18.12;59.67;102048.28;4970948;28;97355;-61
2023/09/07 05:39:45;;;;;;;3.50;3.20;;;;;;;18.11;59.62;102051.59;4971313;28;98403;-61
2023/09/07 05:42:10;;;;;;;2.80;2.60;;;;;;;18.11;59.64;102051.59;4971452;28;97438;-61
2023/09/07 05:44:35;;;;;;;3.00;2.80;;;;;;;18.14;59.76;102045.75;4970552;28;97276;-61
2023/09/07 05:47:02;;;;;;;3.03;2.73;;;;;;;18.15;59.55;102049.28;4966097;28;98842;-61
2023/09/07 05:49:27;;;;;;;3.23;3.03;;;;;;;18.15;59.80;102052.81;4961231;28;97237;-61
2023/09/07 05:51:53;;;;;;;2.93;2.73;;;;;;;18.16;59.71;102053.56;4957273;28;96753;-62
2023/09/07 05:54:18;;;;;;;2.67;2.47;;;;;;;18.18;59.73;102054.59;4966187;28;97059;-61
2023/09/07 05:56:43;;;;;;;3.30;3.10;;;;;;;18.20;59.88;102054.84;4965818;28;96686;-61
2023/09/07 05:59:09;;;;;;;3.03;2.77;;;;;;;18.23;59.97;102058.63;4965637;28;112674;-61
2023/09/07 06:01:34;;;;;;;3.30;3.10;;;;;;;18.24;59.97;102065.72;4967156;28;96637;-61
2023/09/07 06:04:00;;;;;;;3.73;3.13;;;;;;;18.27;60.02;102068.25;4968059;28;97054;-61
2023/09/07 06:06:25;;;;;;;3.23;3.03;;;;;;;18.31;60.12;102068.72;4967031;28;97412;-64
2023/09/07 06:08:51;;;;;;;2.60;2.50;;;;;;;18.35;60.08;102063.66;4964712;28;97047;-61
2023/09/07 06:11:16;;;;;;;3.13;2.93;;;;;;;18.39;60.12;102066.91;4968332;28;97045;-62
2023/09/07 06:13:41;;;;;;;3.63;2.97;;;;;;;18.44;60.40;102068.16;4969441;28;97309;-61
2023/09/07 06:16:07;;;;;;;3.70;3.40;;;;;;;18.49;60.26;102082.13;4968481;28;98609;-61
2023/09/07 06:18:32;;;;;;;3.00;2.80;;;;;;;18.54;60.35;102072.22;4974638;28;96850;-61
2023/09/07 06:20:58;;;;;;;3.60;3.30;;;;;;;18.58;60.36;102073.47;4966937;28;96958;-61
2023/09/07 06:23:23;;;;;;;4.23;3.83;;;;;;;18.65;60.37;102066.59;4968942;28;97436;-61
2023/09/07 06:25:48;;;;;;;3.60;3.33;;;;;;;18.75;60.36;102076.16;4968605;28;98760;-61
2023/09/07 06:28:14;;;;;;;3.90;3.53;;;;;;;18.81;60.22;102071.31;4966392;28;97186;-61
2023/09/07 06:30:39;;;;;;;4.00;3.60;;;;;;;18.87;60.30;102072.03;4967507;28;97542;-61
2023/09/07 06:33:04;;;;;;;3.23;2.93;;;;;;;18.93;60.58;102072.03;4970826;28;97327;-61
2023/09/07 06:35:30;;;;;;;4.03;3.23;;;;;;;18.99;60.47;102069.94;4981305;28;97884;-61
2023/09/07 06:37:56;;;;;;;3.53;3.23;;;;;;;19.05;60.58;102077.00;4966261;28;97541;-61
2023/09/07 06:40:21;;;;;;;3.23;2.93;;;;;;;19.13;60.59;102068.84;4964064;28;96773;-61
2023/09/07 06:42:47;;;;;;;6.17;3.77;;;;;;;19.19;60.42;102064.75;4971530;28;97149;-61
2023/09/07 06:45:12;;;;;;;2.97;2.77;;;;;;;19.27;60.50;102073.31;4969572;28;97607;-61
2023/09/07 06:47:38;;;;;;;3.70;3.40;;;;;;;19.34;60.35;102079.13;4966639;28;97189;-61
2023/09/07 06:50:04;;;;;;;4.00;3.70;;;;;;;19.41;60.59;102075.00;4966668;28;97242;-61
2023/09/07 06:52:30;;;;;;;4.43;4.00;;;;;;;19.51;60.44;102083.78;4970521;28;97254;-61
2023/09/07 06:54:56;;;;;;;4.30;3.97;;;;;;;19.61;60.56;102074.59;4967464;28;97466;-62
2023/09/07 06:57:21;;;;;;;4.83;4.00;;;;;;;19.72;60.50;102082.09;4965950;28;97030;-61
2023/09/07 06:59:48;;;;;;;5.30;3.70;;;;;;;19.81;60.39;102070.59;4965926;28;97245;-61
2023/09/07 07:02:13;;;;;;;4.47;3.83;;;;;;;19.92;60.45;102076.81;4971061;28;97305;-61
2023/09/07 07:04:39;;;;;;;4.60;4.20;;;;;;;20.03;60.31;102079.50;4970346;28;98864;-61
2023/09/07 07:07:05;;;;;;;4.27;3.87;;;;;;;20.13;60.36;102075.09;4966027;28;97576;-61
2023/09/07 07:09:31;;;;;;;8.70;4.27;;;;;;;20.24;60.27;102088.22;4962929;28;97789;-61
2023/09/07 07:12:00;;;;;;;11.03;4.50;;;;;;;20.36;60.10;102083.97;4964434;28;97395;-61
2023/09/07 07:14:25;;;;;;;4.70;4.30;;;;;;;20.44;60.25;102087.72;4963412;28;97128;-61
2023/09/07 07:16:51;;;;;;;5.00;4.00;;;;;;;20.52;59.97;102083.03;4968672;28;99363;-61
2023/09/07 07:19:16;;;;;;;4.33;4.03;;;;;;;20.64;59.92;102081.59;4965228;28;100036;-61
2023/09/07 07:21:41;;;;;;;6.60;4.07;;;;;;;20.74;60.06;102090.38;4964129;28;97129;-62
2023/09/07 07:24:07;;;;;;;7.30;4.13;;;;;;;20.80;60.02;102086.22;4967461;28;99022;-61
2023/09/07 07:26:33;;;;;;;5.07;4.43;;;;;;;20.87;60.06;102088.41;4963477;28;97163;-61
2023/09/07 07:28:58;;;;;;;9.83;4.77;;;;;;;21.01;60.03;102092.03;4968115;28;97259;-61
2023/09/07 07:31:23;;;;;;;4.83;4.43;;;;;;;21.11;59.96;102086.84;4967122;28;97270;-62
2023/09/07 07:33:49;;;;;;;4.33;3.87;;;;;;;21.19;59.81;102085.69;4970015;28;97283;-61
2023/09/07 07:36:14;;;;;;;4.10;3.80;;;;;;;21.30;59.69;102087.53;4972967;28;96878;-61
2023/09/07 07:38:40;;;;;;;6.30;4.70;;;;;;;21.42;59.48;102089.66;4972094;28;96909;-62
2023/09/07 07:41:05;;;;;;;4.63;4.23;;;;;;;21.54;59.62;102098.63;4963678;28;97128;-61
2023/09/07 07:43:31;;;;;;;4.77;4.37;;;;;;;21.64;59.38;102092.06;4968430;28;97401;-62
2023/09/07 07:45:57;;;;;;;4.93;4.53;;;;;;;21.77;59.33;102094.16;4967483;28;97731;-61
2023/09/07 07:48:22;;;;;;;4.87;4.47;;;;;;;21.87;59.28;102094.50;4964203;28;96905;-61
2023/09/07 07:50:48;;;;;;;4.37;3.97;;;;;;;21.98;59.28;102102.72;4965870;28;101821;-62
2023/09/07 07:53:14;;;;;;;4.50;4.20;;;;;;;22.07;59.08;102100.25;4969068;28;106598;-60
2023/09/07 07:55:40;;;;;;;4.63;4.23;;;;;;;22.19;59.17;102100.81;4963952;28;97805;-61
2023/09/07 07:58:07;;;;;;;8.63;4.53;;;;;;;22.30;58.87;102104.13;4964876;28;97035;-61
2023/09/07 08:00:36;;;;;;;5.60;4.67;;;;;;;22.43;58.55;102099.81;4967194;28;97966;-61
2023/09/07 08:03:08;;;;;;;4.57;4.17;;;;;;;22.54;58.54;102097.53;4963072;28;97698;-61
2023/09/07 08:05:34;;;;;;;4.33;3.93;;;;;;;22.71;58.35;102105.63;4962049;28;97027;-61
2023/09/07 08:08:00;;;;;;;4.43;4.00;;;;;;;22.82;58.32;102097.75;4968214;28;100307;-61
2023/09/07 08:10:26;;;;;;;4.70;4.30;;;;;;;22.91;58.15;102091.66;4968817;28;96923;-61
2023/09/07 08:12:54;;;;;;;7.67;3.87;;;;;;;23.05;57.85;102092.38;4968965;28;97099;-61
2023/09/07 08:15:22;;;;;;;4.10;3.70;;;;;;;23.18;57.60;102094.34;4962333;28;97393;-61
2023/09/07 08:17:48;;;;;;;4.73;4.27;;;;;;;23.32;57.35;102090.97;4968450;28;97112;-60
2023/09/07 08:20:13;;;;;;;4.60;3.80;;;;;;;23.47;57.14;102090.38;4967454;28;96859;-61
2023/09/07 08:22:41;;;;;;;5.20;4.20;;;;;;;23.60;56.99;102085.44;4966214;28;97874;-60
2023/09/07 08:25:08;;;;;;;4.00;3.70;;;;;;;23.76;57.03;102083.50;4963793;28;97058;-60
2023/09/07 08:27:33;;;;;;;4.73;3.83;;;;;;;23.91;56.71;102089.22;4967617;28;96758;-61
2023/09/07 08:29:59;;;;;;;5.07;4.03;;;;;;;24.05;56.66;102076.59;4965155;28;97385;-60
2023/09/07 08:32:24;;;;;;;3.50;3.20;;;;;;;24.21;55.85;102088.69;4967749;28;106597;-61
2023/09/07 08:34:51;;;;;;;4.00;3.70;;;;;;;24.35;55.55;102090.09;4967589;28;97620;-61
2023/09/07 08:37:16;;;;;;;4.10;3.70;;;;;;;24.51;54.88;102077.59;4964954;28;97096;-61
2023/09/07 08:39:42;;;;;;;4.53;3.37;;;;;;;24.67;54.71;102081.97;4966947;28;96743;-61
2023/09/07 08:42:07;;;;;;;4.13;3.80;;;;;;;24.82;54.13;102090.50;4967792;28;98219;-61
2023/09/07 08:44:36;;;;;;;4.17;3.80;;;;;;;24.99;54.32;102092.78;4968258;28;97679;-61
2023/09/07 08:47:04;;;;;;;3.93;3.53;;;;;;;25.15;53.89;102091.53;4968904;28;96781;-61
2023/09/07 08:49:30;;;;;;;3.63;3.33;;;;;;;25.29;53.68;102082.31;4968159;28;97309;-61
2023/09/07 08:51:58;;;;;;;4.70;4.00;;;;;;;25.47;53.61;102086.13;4966913;28;97294;-62
2023/09/07 08:54:24;;;;;;;3.67;3.37;;;;;;;25.63;53.32;102081.25;4965632;28;97075;-61
2023/09/07 08:56:50;;;;;;;4.37;3.97;;;;;;;25.81;53.71;102080.13;4966330;28;96902;-61
2023/09/07 08:59:15;;;;;;;4.67;3.57;;;;;;;25.95;53.23;102084.22;4968578;28;97038;-61
2023/09/07 09:01:41;;;;;;;4.00;3.67;;;;;;;26.02;53.02;102084.22;4964852;28;96682;-61
2023/09/07 09:04:07;;;;;;;3.50;3.20;;;;;;;26.14;52.81;102084.59;4963582;28;97600;-61
2023/09/07 09:06:33;;;;;;;3.80;3.50;;;;;;;26.26;52.15;102079.28;4962758;28;98255;-61
2023/09/07 09:08:58;;;;;;;7.43;3.40;;;;;;;26.41;51.92;102082.81;4966013;28;97479;-61
2023/09/07 09:11:24;;;;;;;6.00;3.50;;;;;;;26.59;51.49;102080.84;4967064;28;99485;-61
2023/09/07 09:13:52;;;;;;;4.33;3.93;;;;;;;26.76;51.00;102077.44;4968839;28;97069;-61
2023/09/07 09:16:18;;;;;;;3.50;3.20;;;;;;;26.88;51.27;102086.97;4968378;28;96775;-60
2023/09/07 09:18:57;;;;;;;3.53;3.23;;;;;;;27.03;51.01;102081.22;4968176;28;96869;-60
2023/09/07 09:21:24;;;;;;;3.10;2.90;;;;;;;27.10;50.77;102084.00;4966052;28;96789;-61
2023/09/07 09:23:52;;;;;;;3.57;3.37;;;;;;;27.16;50.26;102089.44;4974597;28;97677;-60
2023/09/07 09:26:19;;;;;;;4.53;3.53;;;;;;;27.27;49.37;102086.16;4970687;28;97418;-61
2023/09/07 09:28:45;;;;;;;3.50;3.20;;;;;;;27.36;49.60;102080.66;4971710;28;97285;-61
2023/09/07 09:31:14;;;;;;;3.53;3.23;;;;;;;27.47;49.29;102079.44;4970099;28;97465;-61
2023/09/07 09:33:41;;;;;;;3.50;3.20;;;;;;;27.58;49.24;102092.34;4970829;28;97013;-60
2023/09/07 09:36:07;;;;;;;3.73;3.33;;;;;;;27.68;49.13;102079.06;4966932;28;97162;-60
2023/09/07 09:38:34;;;;;;;3.63;3.07;;;;;;;27.81;48.87;102076.66;4971383;28;97035;-61
2023/09/07 09:41:00;;;;;;;3.00;2.80;;;;;;;27.88;48.55;102087.16;4966815;28;97657;-61
2023/09/07 09:43:26;;;;;;;3.67;3.37;;;;;;;27.96;48.04;102078.59;4967558;28;97236;-61
2023/09/07 09:45:52;;;;;;;3.17;2.97;;;;;;;28.00;47.67;102074.03;4968906;28;97560;-61
2023/09/07 09:48:22;;;;;;;3.37;3.17;;;;;;;28.05;47.01;102077.97;4966263;28;97124;-60
2023/09/07 09:50:48;;;;;;;3.83;3.50;;;;;;;28.12;46.80;102085.63;4963627;28;97948;-61
2023/09/07 09:53:18;;;;;;;3.23;2.93;;;;;;;28.20;46.98;102078.53;4965404;28;97428;-60
2023/09/07 09:55:47;;;;;;;3.00;2.77;;;;;;;28.25;46.67;102070.38;4966522;28;96998;-62
2023/09/07 09:58:16;;;;;;;3.63;3.30;;;;;;;28.30;46.37;102075.81;4965403;28;98251;-61
2023/09/07 10:00:48;;;;;;;4.23;2.70;;;;;;;28.34;46.04;102061.22;4967163;28;97211;-61
2023/09/07 10:03:26;;;;;;;3.20;2.93;;;;;;;28.41;44.32;102055.47;4968430;28;97508;-63
2023/09/07 10:05:52;;;;;;;3.43;3.20;;;;;;;28.43;46.19;102054.88;4966695;28;97206;-62
2023/09/07 10:08:20;;;;;;;3.60;3.10;;;;;;;28.52;46.04;102062.69;4968474;28;97412;-60
2023/09/07 10:10:53;;;;;;;3.03;2.67;;;;;;;28.61;44.66;102064.88;4968733;28;97368;-61
2023/09/07 10:13:30;;;;;;;3.40;3.10;;;;;;;28.67;44.42;102048.34;4967119;28;97728;-60
2023/09/07 10:16:09;;;;;;;3.03;2.77;;;;;;;28.75;44.56;102046.91;4966280;28;97171;-61
2023/09/07 10:18:38;;;;;;;3.33;3.10;;;;;;;28.80;45.36;102047.97;4966950;28;97165;-61
2023/09/07 10:21:04;;;;;;;2.90;2.70;;;;;;;28.85;44.82;102044.13;4968542;28;97553;-61
2023/09/07 10:23:43;;;;;;;2.90;2.70;;;;;;;28.88;43.97;102034.44;4970084;28;96813;-62
2023/09/07 10:26:12;;;;;;;2.80;2.60;;;;;;;28.89;44.47;102041.63;4969108;28;97149;-60
2023/09/07 10:28:38;;;;;;;3.50;3.23;;;;;;;28.94;44.92;102034.94;4966793;28;97414;-61
2023/09/07 10:31:13;;;;;;;3.47;3.17;;;;;;;29.01;43.56;102051.06;4965034;28;97172;-60
2023/09/07 10:33:39;;;;;;;3.10;2.90;;;;;;;29.07;44.17;102040.22;4965706;28;101154;-61
2023/09/07 10:36:05;;;;;;;4.40;3.00;;;;;;;29.10;43.86;102039.03;4966850;28;97007;-61
2023/09/07 10:38:32;;;;;;;3.10;2.90;;;;;;;29.19;44.15;102034.75;4968188;28;97114;-60
2023/09/07 10:40:59;;;;;;;2.93;2.73;;;;;;;29.30;43.97;102034.19;4960105;28;97839;-60
2023/09/07 10:43:26;;;;;;;4.70;3.60;;;;;;;29.40;43.81;102037.81;4965089;28;100124;-60
2023/09/07 10:45:53;;;;;;;3.33;3.03;;;;;;;29.47;43.82;102042.59;4970379;28;97342;-60
2023/09/07 10:48:19;;;;;;;3.37;3.03;;;;;;;29.54;43.77;102036.81;4962535;28;97422;-61
2023/09/07 10:50:46;;;;;;;3.13;2.93;;;;;;;29.60;43.20;102033.66;4966385;28;97232;-61
2023/09/07 10:53:14;;;;;;;3.13;2.83;;;;;;;29.68;43.13;102035.03;4966777;28;97611;-61
2023/09/07 10:55:40;;;;;;;3.80;2.60;;;;;;;29.81;43.18;102030.31;4970825;28;96736;-60
2023/09/07 10:58:06;;;;;;;4.90;3.73;;;;;;;29.91;42.66;102026.13;4965990;28;97082;-60
2023/09/07 11:00:31;;;;;;;4.20;3.13;;;;;;;29.97;42.97;102032.25;4968007;28;98299;-60
2023/09/07 11:02:56;;;;;;;3.33;3.07;;;;;;;30.05;42.38;102024.34;4970571;28;97148;-60
2023/09/07 11:05:22;;;;;;;4.13;3.10;;;;;;;30.11;42.09;102021.19;4969132;28;96785;-61
2023/09/07 11:07:48;;;;;;;2.80;2.60;;;;;;;30.17;42.17;102021.63;4966851;28;100417;-61
2023/09/07 11:10:13;;;;;;;3.37;3.07;;;;;;;30.20;42.37;102021.19;4968189;28;98258;-61
2023/09/07 11:12:40;;;;;;;4.07;3.27;;;;;;;30.26;42.20;102012.34;4967664;28;97340;-60
2023/09/07 11:15:09;;;;;;;7.40;3.40;;;;;;;30.29;41.88;102011.91;4971657;28;97033;-62
2023/09/07 11:17:38;;;;;;;3.10;2.90;;;;;;;30.38;42.04;102001.91;4968118;28;97304;-60
2023/09/07 11:20:07;;;;;;;4.13;3.13;;;;;;;30.47;41.65;102012.47;4963420;28;98060;-60